Ana Sayfa
METAR-TAF:

METAR-TAF

Havaalanları :

Mardin, Türkiye

Mardin Havalimanı

Enlem: 37-13-58N, Boylam: 40-38-26E, yükseklik: 527 m

Güncel hava durumu gözlemi

Rapor saat 02:50 UTC de 25 dakika önce yapıldı.
Rüzgar kuzey/kuzeydoğudan 6 kt
Sıcaklık 7°C
Nem 93%
Basınç 1009 hPa
Görüş mesafesi 10 km veya daha fazla
4000 ft yükseklikte az bulutlu
18000 ft yükseklikte parçalı çok bulutlu

METAR: LTCR 260250Z 02006KT 9999 FEW040 BKN180 07/06 Q1009

Saat: 06:15 (03:15 UTC)

Tahmin

Rapor saat 01:40 UTC de 1 saat ve 35 dakika önce yapıldı.
Ayın 26'si saat 03 UTC'den ayın 26'si saat 12 UTC'ye kadar geçerli Tahmin
Rüzgar kuzeydoğudan 9 kt
Görüş mesafesi 10 km veya daha fazla
4000 ft yükseklikte parçalı bulutlu
10000 ft yükseklikte parçalı çok bulutlu
Geçici
ayın 26'si saat 03 UTC'den ayın 26'si saat 06 UTC'ye kadar
Görüş mesafesi: 2000 m
Pus

TAF: LTCR 260140Z 2603/2612 05009KT 9999 SCT040 BKN100 TEMPO 2603/2606 2000 BR

4.000'den fazla havaalanı için hava durumu gözlemleri ve tahminleri (METAR ve TAF raporları).

Kullanılabilir istasyonlar harita üzerinde sarı ve kırmızı noktalarla gösterilir.

İstasyonun adını görmek için fareyi noktanın üzerinde gezdirin.

Sonrasında hava gözlem ve tahminlerini görmek için tıklayın.

Haritayı değiştirmek için: yaklaştırmak için siyah artı işaretli yeşil düğmeye ve uzaklaştırmak için de eksi işaretli düğmeye hızla tıklayın; bitişik haritalar için yeşil okları kullanın.


METAR-TAF: